Cairns, Queensland

8:18 PM AEST on July 23, 2016 (GMT +1000)
| | Change Station

Elev -9999 ft 0.00 °N, 0.00 °E | Updated

Partly Cloudy
Partly Cloudy
71 °F
Feels Like 71 °F
N
7
Wind Variable Wind from South
Gusts mph

Today
High -- | Low -- °F
--% Chance of Precip.
Yesterday
High -- | Low -- °F
Precip. -- in
Pressure 29.92 in
Visibility 6.2 miles
Clouds Few 2500 ft
Dew Point 69 °F
Humidity 92%
Rainfall --
Snow Depth Not available.
6:45 AM 6:02 PM
Waning Gibbous, 86% visible
METAR YBCS 231000Z 16004KT 9999 FEW025 22/20 Q1013 NOSIG
Pressure 29.92 in
Visibility 6.2 miles
Clouds Few 2500 ft
Dew Point 69 °F
Humidity 92%
Rainfall --
Snow Depth Not available.
6:45 AM 6:02 PM
Waning Gibbous, 86% visible
METAR YBCS 231000Z 16004KT 9999 FEW025 22/20 Q1013 NOSIG

10-Day Weather Forecast

Almanac

Astronomy

Jul. 23, 2016 Rise Set
Actual Time
Civil Twilight
Nautical Twilight
Astronomical Twilight
Moon
Length of Visible Light
Length of Day
Tomorrow will be .
, % of the Moon is Illuminated

Today's Extremes

Country Highs Country Lows

Community

WunderPhotos

Upload Photos

1,926,789 photos uploaded!

WunderBlog® & News

Nearby

Air Quality

  Air Quality AQ Index Pollutant
Not available.

Snow Depth

Station Depth Elevation

Earthquake Activity

City Distance Mag. Time & Date
Minimum magnitude displayed is 2.5.

Coastal Water Temperatures

Place Temperature

Stations

Nearby Weather Stations

Station Location Temp. Windchill Dew Point Humidity Wind Precip. Elev Updated Type